sensor_id;sensor_type;location;lat;lon;timestamp;pressure;altitude;pressure_sealevel;temperature;humidity
11878;BME280;5998;42.676;23.268;2022-08-19T00:01:41;94548.78;;;23.41;100.00
11878;BME280;5998;42.676;23.268;2022-08-19T00:04:13;94545.25;;;23.40;100.00
11878;BME280;5998;42.676;23.268;2022-08-19T00:06:42;94546.38;;;23.43;100.00
11878;BME280;5998;42.676;23.268;2022-08-19T00:09:12;94535.41;;;23.43;100.00
11878;BME280;5998;42.676;23.268;2022-08-19T00:11:42;94539.81;;;23.37;100.00
11878;BME280;5998;42.676;23.268;2022-08-19T00:14:11;94545.63;;;23.42;100.00
11878;BME280;5998;42.676;23.268;2022-08-19T00:16:39;94546.28;;;23.46;100.00
11878;BME280;5998;42.676;23.268;2022-08-19T00:19:07;94551.09;;;23.42;100.00
11878;BME280;5998;42.676;23.268;2022-08-19T00:21:35;94558.56;;;23.42;100.00
11878;BME280;5998;42.676;23.268;2022-08-19T00:24:05;94562.22;;;23.35;100.00
11878;BME280;5998;42.676;23.268;2022-08-19T00:26:32;94564.19;;;23.35;100.00
11878;BME280;5998;42.676;23.268;2022-08-19T00:29:00;94566.91;;;23.19;100.00
11878;BME280;5998;42.676;23.268;2022-08-19T00:31:27;94561.28;;;23.26;100.00
11878;BME280;5998;42.676;23.268;2022-08-19T00:33:54;94554.78;;;23.16;100.00
11878;BME280;5998;42.676;23.268;2022-08-19T00:36:21;94551.53;;;23.21;100.00
11878;BME280;5998;42.676;23.268;2022-08-19T00:38:47;94557.63;;;23.13;100.00
11878;BME280;5998;42.676;23.268;2022-08-19T00:41:19;94546.88;;;23.02;100.00
11878;BME280;5998;42.676;23.268;2022-08-19T00:43:57;94544.13;;;23.02;100.00
11878;BME280;5998;42.676;23.268;2022-08-19T00:46:26;94548.34;;;23.07;100.00
11878;BME280;5998;42.676;23.268;2022-08-19T00:48:54;94525.75;;;22.99;100.00
11878;BME280;5998;42.676;23.268;2022-08-19T00:51:21;94535.00;;;22.89;100.00
11878;BME280;5998;42.676;23.268;2022-08-19T00:53:48;94541.59;;;22.91;100.00
11878;BME280;5998;42.676;23.268;2022-08-19T00:56:15;94530.56;;;22.95;100.00
11878;BME280;5998;42.676;23.268;2022-08-19T00:58:42;94547.19;;;22.88;100.00
11878;BME280;5998;42.676;23.268;2022-08-19T01:01:10;94534.88;;;22.76;100.00
11878;BME280;5998;42.676;23.268;2022-08-19T01:03:38;94537.09;;;22.62;100.00
11878;BME280;5998;42.676;23.268;2022-08-19T01:06:05;94533.69;;;22.58;100.00
11878;BME280;5998;42.676;23.268;2022-08-19T01:08:32;94541.91;;;22.58;100.00
11878;BME280;5998;42.676;23.268;2022-08-19T01:11:00;94542.00;;;22.11;100.00
11878;BME280;5998;42.676;23.268;2022-08-19T01:13:29;94544.31;;;22.13;100.00
11878;BME280;5998;42.676;23.268;2022-08-19T01:15:59;94547.50;;;21.88;100.00
11878;BME280;5998;42.676;23.268;2022-08-19T01:18:27;94543.38;;;21.76;100.00
11878;BME280;5998;42.676;23.268;2022-08-19T01:21:00;94542.66;;;21.72;100.00
11878;BME280;5998;42.676;23.268;2022-08-19T01:23:30;94537.41;;;21.82;100.00
11878;BME280;5998;42.676;23.268;2022-08-19T01:26:09;94533.66;;;21.72;100.00
11878;BME280;5998;42.676;23.268;2022-08-19T01:28:37;94530.00;;;21.78;100.00
11878;BME280;5998;42.676;23.268;2022-08-19T01:31:05;94539.00;;;21.79;100.00
11878;BME280;5998;42.676;23.268;2022-08-19T01:33:33;94543.06;;;21.48;100.00
11878;BME280;5998;42.676;23.268;2022-08-19T01:36:08;94542.16;;;21.54;100.00
11878;BME280;5998;42.676;23.268;2022-08-19T01:38:39;94543.59;;;21.62;100.00
11878;BME280;5998;42.676;23.268;2022-08-19T01:41:08;94545.63;;;21.58;100.00
11878;BME280;5998;42.676;23.268;2022-08-19T01:43:35;94551.81;;;21.62;100.00
11878;BME280;5998;42.676;23.268;2022-08-19T01:46:02;94546.03;;;21.57;100.00
11878;BME280;5998;42.676;23.268;2022-08-19T01:48:34;94544.91;;;21.54;100.00
11878;BME280;5998;42.676;23.268;2022-08-19T01:51:00;94536.81;;;21.47;100.00
11878;BME280;5998;42.676;23.268;2022-08-19T01:53:27;94547.00;;;21.47;100.00
11878;BME280;5998;42.676;23.268;2022-08-19T01:55:56;94514.84;;;21.24;100.00
11878;BME280;5998;42.676;23.268;2022-08-19T01:58:26;94540.72;;;21.46;100.00
11878;BME280;5998;42.676;23.268;2022-08-19T02:00:55;94533.41;;;21.40;100.00
11878;BME280;5998;42.676;23.268;2022-08-19T02:03:23;94543.16;;;21.41;100.00
11878;BME280;5998;42.676;23.268;2022-08-19T02:05:54;94546.13;;;21.53;100.00
11878;BME280;5998;42.676;23.268;2022-08-19T02:08:21;94543.28;;;21.57;100.00
11878;BME280;5998;42.676;23.268;2022-08-19T02:10:48;94554.25;;;21.57;100.00
11878;BME280;5998;42.676;23.268;2022-08-19T02:13:17;94545.03;;;21.47;100.00
11878;BME280;5998;42.676;23.268;2022-08-19T02:15:44;94548.63;;;21.41;100.00
11878;BME280;5998;42.676;23.268;2022-08-19T02:18:11;94547.50;;;21.38;100.00
11878;BME280;5998;42.676;23.268;2022-08-19T02:20:40;94537.50;;;21.28;100.00
11878;BME280;5998;42.676;23.268;2022-08-19T02:23:08;94543.03;;;21.25;100.00
11878;BME280;5998;42.676;23.268;2022-08-19T02:25:35;94518.19;;;21.12;100.00
11878;BME280;5998;42.676;23.268;2022-08-19T02:28:03;94548.06;;;21.26;100.00
11878;BME280;5998;42.676;23.268;2022-08-19T02:30:31;94536.38;;;21.26;100.00
11878;BME280;5998;42.676;23.268;2022-08-19T02:32:58;94544.28;;;21.20;100.00
11878;BME280;5998;42.676;23.268;2022-08-19T02:35:25;94536.91;;;21.13;100.00
11878;BME280;5998;42.676;23.268;2022-08-19T02:37:52;94545.56;;;21.12;100.00
11878;BME280;5998;42.676;23.268;2022-08-19T02:40:36;94548.00;;;21.03;100.00
11878;BME280;5998;42.676;23.268;2022-08-19T02:43:04;94547.56;;;21.04;100.00
11878;BME280;5998;42.676;23.268;2022-08-19T02:45:34;94544.03;;;21.07;100.00
11878;BME280;5998;42.676;23.268;2022-08-19T02:48:01;94552.31;;;21.04;100.00
11878;BME280;5998;42.676;23.268;2022-08-19T02:50:28;94553.13;;;21.01;100.00
11878;BME280;5998;42.676;23.268;2022-08-19T02:52:55;94552.81;;;20.95;100.00
11878;BME280;5998;42.676;23.268;2022-08-19T02:55:22;94554.94;;;20.81;100.00
11878;BME280;5998;42.676;23.268;2022-08-19T02:57:49;94558.94;;;20.76;100.00
11878;BME280;5998;42.676;23.268;2022-08-19T03:00:16;94560.22;;;20.65;100.00
11878;BME280;5998;42.676;23.268;2022-08-19T03:02:44;94557.06;;;20.66;100.00
11878;BME280;5998;42.676;23.268;2022-08-19T03:05:12;94558.53;;;20.74;100.00
11878;BME280;5998;42.676;23.268;2022-08-19T03:07:39;94563.25;;;20.74;100.00
11878;BME280;5998;42.676;23.268;2022-08-19T03:10:06;94556.63;;;20.71;100.00
11878;BME280;5998;42.676;23.268;2022-08-19T03:12:36;94566.16;;;20.59;100.00
11878;BME280;5998;42.676;23.268;2022-08-19T03:15:03;94555.22;;;20.59;100.00
11878;BME280;5998;42.676;23.268;2022-08-19T03:17:31;94557.56;;;20.57;100.00
11878;BME280;5998;42.676;23.268;2022-08-19T03:19:59;94555.59;;;20.62;100.00
11878;BME280;5998;42.676;23.268;2022-08-19T03:22:26;94552.56;;;20.52;100.00
11878;BME280;5998;42.676;23.268;2022-08-19T03:24:54;94551.53;;;20.39;100.00
11878;BME280;5998;42.676;23.268;2022-08-19T03:27:20;94557.81;;;20.36;100.00
11878;BME280;5998;42.676;23.268;2022-08-19T03:29:47;94559.75;;;20.39;100.00
11878;BME280;5998;42.676;23.268;2022-08-19T03:32:14;94557.09;;;20.32;100.00
11878;BME280;5998;42.676;23.268;2022-08-19T03:34:41;94560.59;;;20.33;100.00
11878;BME280;5998;42.676;23.268;2022-08-19T03:37:10;94560.97;;;20.35;100.00
11878;BME280;5998;42.676;23.268;2022-08-19T03:39:39;94559.38;;;20.37;100.00
11878;BME280;5998;42.676;23.268;2022-08-19T03:42:06;94556.19;;;20.42;100.00
11878;BME280;5998;42.676;23.268;2022-08-19T03:44:32;94558.91;;;20.46;100.00
11878;BME280;5998;42.676;23.268;2022-08-19T03:47:01;94568.19;;;20.52;100.00
11878;BME280;5998;42.676;23.268;2022-08-19T03:49:31;94569.69;;;20.60;100.00
11878;BME280;5998;42.676;23.268;2022-08-19T03:51:58;94576.28;;;20.63;100.00
11878;BME280;5998;42.676;23.268;2022-08-19T03:54:28;94586.53;;;20.55;100.00
11878;BME280;5998;42.676;23.268;2022-08-19T03:56:56;94577.13;;;20.56;100.00
11878;BME280;5998;42.676;23.268;2022-08-19T03:59:25;94572.34;;;20.64;100.00
11878;BME280;5998;42.676;23.268;2022-08-19T04:01:53;94583.25;;;20.67;100.00
11878;BME280;5998;42.676;23.268;2022-08-19T04:04:20;94581.34;;;20.64;100.00
11878;BME280;5998;42.676;23.268;2022-08-19T04:06:47;94589.09;;;20.69;100.00
11878;BME280;5998;42.676;23.268;2022-08-19T04:09:14;94595.78;;;20.68;100.00
11878;BME280;5998;42.676;23.268;2022-08-19T04:11:46;94584.44;;;20.66;100.00
11878;BME280;5998;42.676;23.268;2022-08-19T04:14:16;94591.38;;;20.74;100.00
11878;BME280;5998;42.676;23.268;2022-08-19T04:16:43;94592.09;;;20.82;100.00
11878;BME280;5998;42.676;23.268;2022-08-19T04:19:11;94595.00;;;20.98;100.00
11878;BME280;5998;42.676;23.268;2022-08-19T04:21:38;94601.16;;;21.05;100.00
11878;BME280;5998;42.676;23.268;2022-08-19T04:24:06;94596.03;;;21.11;100.00
11878;BME280;5998;42.676;23.268;2022-08-19T04:26:35;94597.78;;;21.25;100.00
11878;BME280;5998;42.676;23.268;2022-08-19T04:29:07;94600.38;;;21.35;100.00
11878;BME280;5998;42.676;23.268;2022-08-19T04:31:35;94586.22;;;21.40;100.00
11878;BME280;5998;42.676;23.268;2022-08-19T04:34:04;94601.63;;;21.57;100.00
11878;BME280;5998;42.676;23.268;2022-08-19T04:36:33;94589.41;;;21.62;100.00
11878;BME280;5998;42.676;23.268;2022-08-19T04:39:03;94600.41;;;21.85;100.00
11878;BME280;5998;42.676;23.268;2022-08-19T04:41:31;94598.97;;;22.00;100.00
11878;BME280;5998;42.676;23.268;2022-08-19T04:44:17;94591.63;;;21.97;100.00
11878;BME280;5998;42.676;23.268;2022-08-19T04:46:44;94594.91;;;21.89;100.00
11878;BME280;5998;42.676;23.268;2022-08-19T04:49:12;94597.03;;;22.01;100.00
11878;BME280;5998;42.676;23.268;2022-08-19T04:51:41;94597.16;;;22.37;100.00
11878;BME280;5998;42.676;23.268;2022-08-19T04:54:08;94602.34;;;22.54;100.00
11878;BME280;5998;42.676;23.268;2022-08-19T04:56:35;94594.28;;;22.86;100.00
11878;BME280;5998;42.676;23.268;2022-08-19T04:59:02;94601.53;;;23.32;100.00
11878;BME280;5998;42.676;23.268;2022-08-19T05:01:32;94602.38;;;23.49;100.00
11878;BME280;5998;42.676;23.268;2022-08-19T05:04:00;94603.09;;;23.69;100.00
11878;BME280;5998;42.676;23.268;2022-08-19T05:06:30;94585.56;;;23.79;100.00
11878;BME280;5998;42.676;23.268;2022-08-19T05:08:59;94599.06;;;24.06;100.00
11878;BME280;5998;42.676;23.268;2022-08-19T05:11:28;94600.00;;;24.32;100.00
11878;BME280;5998;42.676;23.268;2022-08-19T05:13:56;94602.03;;;24.44;100.00
11878;BME280;5998;42.676;23.268;2022-08-19T05:16:24;94607.81;;;24.49;100.00
11878;BME280;5998;42.676;23.268;2022-08-19T05:18:53;94605.81;;;24.50;100.00
11878;BME280;5998;42.676;23.268;2022-08-19T05:21:40;94605.03;;;24.49;100.00
11878;BME280;5998;42.676;23.268;2022-08-19T05:24:24;94605.13;;;24.46;100.00
11878;BME280;5998;42.676;23.268;2022-08-19T05:26:52;94610.22;;;24.47;100.00
11878;BME280;5998;42.676;23.268;2022-08-19T05:29:23;94604.31;;;24.61;100.00
11878;BME280;5998;42.676;23.268;2022-08-19T05:31:51;94610.31;;;24.73;100.00
11878;BME280;5998;42.676;23.268;2022-08-19T05:34:20;94612.38;;;24.85;100.00
11878;BME280;5998;42.676;23.268;2022-08-19T05:36:51;94606.78;;;25.01;100.00
11878;BME280;5998;42.676;23.268;2022-08-19T05:39:21;94605.84;;;25.33;100.00
11878;BME280;5998;42.676;23.268;2022-08-19T05:41:49;94599.63;;;25.57;100.00
11878;BME280;5998;42.676;23.268;2022-08-19T05:44:17;94602.59;;;26.01;100.00
11878;BME280;5998;42.676;23.268;2022-08-19T05:46:45;94607.44;;;26.09;100.00
11878;BME280;5998;42.676;23.268;2022-08-19T05:49:13;94574.31;;;26.09;100.00
11878;BME280;5998;42.676;23.268;2022-08-19T05:51:42;94587.00;;;26.19;100.00
11878;BME280;5998;42.676;23.268;2022-08-19T05:54:09;94602.47;;;26.04;100.00
11878;BME280;5998;42.676;23.268;2022-08-19T05:56:39;94602.06;;;26.40;100.00
11878;BME280;5998;42.676;23.268;2022-08-19T05:59:07;94588.88;;;26.91;100.00
11878;BME280;5998;42.676;23.268;2022-08-19T06:01:35;94599.47;;;26.92;100.00
11878;BME280;5998;42.676;23.268;2022-08-19T06:04:03;94611.63;;;26.61;100.00
11878;BME280;5998;42.676;23.268;2022-08-19T06:06:30;94612.84;;;26.60;100.00
11878;BME280;5998;42.676;23.268;2022-08-19T06:09:00;94609.13;;;26.88;100.00
11878;BME280;5998;42.676;23.268;2022-08-19T06:11:33;94608.03;;;27.07;100.00
11878;BME280;5998;42.676;23.268;2022-08-19T06:14:03;94615.63;;;27.16;100.00
11878;BME280;5998;42.676;23.268;2022-08-19T06:16:30;94605.25;;;27.29;100.00
11878;BME280;5998;42.676;23.268;2022-08-19T06:19:01;94611.06;;;27.43;100.00
11878;BME280;5998;42.676;23.268;2022-08-19T06:21:29;94607.63;;;27.70;99.87
11878;BME280;5998;42.676;23.268;2022-08-19T06:23:57;94608.34;;;27.92;99.71
11878;BME280;5998;42.676;23.268;2022-08-19T06:26:26;94607.88;;;27.94;96.86
11878;BME280;5998;42.676;23.268;2022-08-19T06:28:53;94611.47;;;27.73;98.54
11878;BME280;5998;42.676;23.268;2022-08-19T06:31:22;94613.78;;;28.05;98.06
11878;BME280;5998;42.676;23.268;2022-08-19T06:33:50;94609.53;;;28.22;96.96
11878;BME280;5998;42.676;23.268;2022-08-19T06:36:18;94612.78;;;28.39;97.90
11878;BME280;5998;42.676;23.268;2022-08-19T06:38:45;94607.72;;;28.55;96.21
11878;BME280;5998;42.676;23.268;2022-08-19T06:41:12;94597.41;;;28.47;95.73
11878;BME280;5998;42.676;23.268;2022-08-19T06:43:40;94609.56;;;28.40;94.50
11878;BME280;5998;42.676;23.268;2022-08-19T06:46:12;94610.34;;;28.59;95.23
11878;BME280;5998;42.676;23.268;2022-08-19T06:48:39;94617.66;;;27.77;97.73
11878;BME280;5998;42.676;23.268;2022-08-19T06:51:06;94607.56;;;27.92;99.60
11878;BME280;5998;42.676;23.268;2022-08-19T06:53:33;94612.69;;;28.02;98.12
11878;BME280;5998;42.676;23.268;2022-08-19T06:56:00;94610.19;;;28.53;95.85
11878;BME280;5998;42.676;23.268;2022-08-19T06:58:28;94614.56;;;28.73;94.57
11878;BME280;5998;42.676;23.268;2022-08-19T07:01:00;94612.53;;;28.91;92.77
11878;BME280;5998;42.676;23.268;2022-08-19T07:03:29;94619.00;;;29.15;92.85
11878;BME280;5998;42.676;23.268;2022-08-19T07:05:57;94618.53;;;29.17;92.99
11878;BME280;5998;42.676;23.268;2022-08-19T07:08:24;94618.84;;;29.19;89.53
11878;BME280;5998;42.676;23.268;2022-08-19T07:10:52;94621.44;;;29.41;90.46
11878;BME280;5998;42.676;23.268;2022-08-19T07:13:20;94621.47;;;29.04;91.94
11878;BME280;5998;42.676;23.268;2022-08-19T07:15:48;94615.16;;;29.13;88.98
11878;BME280;5998;42.676;23.268;2022-08-19T07:18:17;94625.16;;;29.19;91.23
11878;BME280;5998;42.676;23.268;2022-08-19T07:20:44;94617.47;;;29.33;90.40
11878;BME280;5998;42.676;23.268;2022-08-19T07:23:11;94615.25;;;29.46;88.88
11878;BME280;5998;42.676;23.268;2022-08-19T07:25:37;94627.06;;;29.73;87.28
11878;BME280;5998;42.676;23.268;2022-08-19T07:28:04;94623.81;;;29.84;87.42
11878;BME280;5998;42.676;23.268;2022-08-19T07:30:32;94608.53;;;29.89;83.16
11878;BME280;5998;42.676;23.268;2022-08-19T07:33:02;94621.81;;;29.85;83.96
11878;BME280;5998;42.676;23.268;2022-08-19T07:35:30;94615.13;;;29.49;84.09
11878;BME280;5998;42.676;23.268;2022-08-19T07:37:57;94614.97;;;29.53;85.94
11878;BME280;5998;42.676;23.268;2022-08-19T07:40:24;94618.31;;;29.66;86.26
11878;BME280;5998;42.676;23.268;2022-08-19T07:42:51;94611.00;;;29.87;85.92
11878;BME280;5998;42.676;23.268;2022-08-19T07:45:17;94611.00;;;30.19;82.49
11878;BME280;5998;42.676;23.268;2022-08-19T07:47:44;94614.94;;;30.60;79.68
11878;BME280;5998;42.676;23.268;2022-08-19T07:50:11;94609.75;;;30.91;79.37
11878;BME280;5998;42.676;23.268;2022-08-19T07:52:40;94610.06;;;30.93;78.87
11878;BME280;5998;42.676;23.268;2022-08-19T07:55:09;94613.06;;;30.33;76.78
11878;BME280;5998;42.676;23.268;2022-08-19T07:57:36;94604.38;;;30.17;77.93
11878;BME280;5998;42.676;23.268;2022-08-19T08:00:05;94610.59;;;30.35;77.11
11878;BME280;5998;42.676;23.268;2022-08-19T08:02:32;94612.25;;;30.66;75.88
11878;BME280;5998;42.676;23.268;2022-08-19T08:04:58;94614.69;;;30.96;75.88
11878;BME280;5998;42.676;23.268;2022-08-19T08:07:44;94605.94;;;31.42;72.46
11878;BME280;5998;42.676;23.268;2022-08-19T08:10:28;94605.94;;;31.86;70.86
11878;BME280;5998;42.676;23.268;2022-08-19T08:12:55;94606.97;;;31.88;70.42
11878;BME280;5998;42.676;23.268;2022-08-19T08:15:22;94608.41;;;32.13;69.06
11878;BME280;5998;42.676;23.268;2022-08-19T08:17:49;94606.97;;;32.38;66.92
11878;BME280;5998;42.676;23.268;2022-08-19T08:20:16;94604.63;;;32.51;67.39
11878;BME280;5998;42.676;23.268;2022-08-19T08:22:45;94600.59;;;32.52;65.79
11878;BME280;5998;42.676;23.268;2022-08-19T08:25:29;94603.75;;;32.25;62.31
11878;BME280;5998;42.676;23.268;2022-08-19T08:27:56;94603.84;;;32.50;63.57
11878;BME280;5998;42.676;23.268;2022-08-19T08:30:25;94598.16;;;32.59;62.38
11878;BME280;5998;42.676;23.268;2022-08-19T08:32:53;94594.75;;;32.70;59.67
11878;BME280;5998;42.676;23.268;2022-08-19T08:35:21;94588.78;;;33.03;61.15
11878;BME280;5998;42.676;23.268;2022-08-19T08:37:51;94587.63;;;33.09;57.41
11878;BME280;5998;42.676;23.268;2022-08-19T08:40:22;94592.00;;;33.42;55.35
11878;BME280;5998;42.676;23.268;2022-08-19T08:42:53;94598.81;;;33.61;53.30
11878;BME280;5998;42.676;23.268;2022-08-19T08:45:26;94589.59;;;33.55;48.65
11878;BME280;5998;42.676;23.268;2022-08-19T08:47:56;94581.94;;;33.24;49.39
11878;BME280;5998;42.676;23.268;2022-08-19T08:50:30;94595.78;;;32.73;45.38
11878;BME280;5998;42.676;23.268;2022-08-19T08:53:03;94593.22;;;32.69;48.39
11878;BME280;5998;42.676;23.268;2022-08-19T08:55:32;94584.72;;;32.78;49.74
11878;BME280;5998;42.676;23.268;2022-08-19T08:58:01;94578.94;;;32.82;51.64
11878;BME280;5998;42.676;23.268;2022-08-19T09:00:32;94584.47;;;33.22;51.17
11878;BME280;5998;42.676;23.268;2022-08-19T09:03:00;94579.00;;;33.59;50.27
11878;BME280;5998;42.676;23.268;2022-08-19T09:05:35;94578.56;;;33.14;50.07
11878;BME280;5998;42.676;23.268;2022-08-19T09:08:08;94574.25;;;32.93;50.33
11878;BME280;5998;42.676;23.268;2022-08-19T09:10:43;94574.56;;;33.01;51.60
11878;BME280;5998;42.676;23.268;2022-08-19T09:13:14;94577.44;;;33.32;49.62
11878;BME280;5998;42.676;23.268;2022-08-19T09:15:51;94569.91;;;33.38;47.77
11878;BME280;5998;42.676;23.268;2022-08-19T09:18:19;94568.25;;;33.52;44.63
11878;BME280;5998;42.676;23.268;2022-08-19T09:20:46;94565.31;;;33.61;46.17
11878;BME280;5998;42.676;23.268;2022-08-19T09:23:15;94566.78;;;33.56;45.16
11878;BME280;5998;42.676;23.268;2022-08-19T09:25:41;94572.69;;;33.64;41.42
11878;BME280;5998;42.676;23.268;2022-08-19T09:28:08;94558.81;;;33.75;43.38
11878;BME280;5998;42.676;23.268;2022-08-19T09:30:40;94555.94;;;33.95;43.78
11878;BME280;5998;42.676;23.268;2022-08-19T09:33:07;94558.19;;;33.91;43.07
11878;BME280;5998;42.676;23.268;2022-08-19T09:35:34;94553.56;;;33.88;39.74
11878;BME280;5998;42.676;23.268;2022-08-19T09:38:02;94555.16;;;33.95;42.12
11878;BME280;5998;42.676;23.268;2022-08-19T09:40:31;94549.50;;;34.20;42.96
11878;BME280;5998;42.676;23.268;2022-08-19T09:42:58;94545.06;;;34.51;41.28
11878;BME280;5998;42.676;23.268;2022-08-19T09:45:28;94544.34;;;34.56;38.00
11878;BME280;5998;42.676;23.268;2022-08-19T09:47:56;94546.84;;;34.48;38.92
11878;BME280;5998;42.676;23.268;2022-08-19T09:50:23;94549.19;;;34.13;38.67
11878;BME280;5998;42.676;23.268;2022-08-19T09:52:50;94546.75;;;34.31;40.01
11878;BME280;5998;42.676;23.268;2022-08-19T09:55:18;94550.59;;;33.97;38.56
11878;BME280;5998;42.676;23.268;2022-08-19T09:57:47;94539.03;;;34.15;38.00
11878;BME280;5998;42.676;23.268;2022-08-19T10:00:14;94536.28;;;34.21;39.96
11878;BME280;5998;42.676;23.268;2022-08-19T10:02:41;94533.84;;;34.39;39.09
11878;BME280;5998;42.676;23.268;2022-08-19T10:05:08;94532.22;;;34.70;36.81
11878;BME280;5998;42.676;23.268;2022-08-19T10:07:52;94524.41;;;34.96;36.67
11878;BME280;5998;42.676;23.268;2022-08-19T10:10:19;94526.94;;;34.83;34.47
11878;BME280;5998;42.676;23.268;2022-08-19T10:12:48;94523.41;;;34.99;36.15
11878;BME280;5998;42.676;23.268;2022-08-19T10:15:14;94519.38;;;35.11;34.19
11878;BME280;5998;42.676;23.268;2022-08-19T10:17:41;94515.09;;;35.32;35.42
11878;BME280;5998;42.676;23.268;2022-08-19T10:20:09;94518.94;;;35.57;34.15
11878;BME280;5998;42.676;23.268;2022-08-19T10:22:36;94514.84;;;35.75;34.81
11878;BME280;5998;42.676;23.268;2022-08-19T10:25:05;94509.72;;;36.12;35.33
11878;BME280;5998;42.676;23.268;2022-08-19T10:27:32;94512.97;;;36.33;35.49
11878;BME280;5998;42.676;23.268;2022-08-19T10:30:00;94501.25;;;36.34;33.61
11878;BME280;5998;42.676;23.268;2022-08-19T10:32:27;94510.19;;;36.27;32.53
11878;BME280;5998;42.676;23.268;2022-08-19T10:34:55;94510.13;;;36.44;32.82
11878;BME280;5998;42.676;23.268;2022-08-19T10:37:22;94505.03;;;36.48;33.26
11878;BME280;5998;42.676;23.268;2022-08-19T10:39:49;94496.84;;;36.61;31.37
11878;BME280;5998;42.676;23.268;2022-08-19T10:42:17;94502.22;;;36.59;33.46
11878;BME280;5998;42.676;23.268;2022-08-19T10:44:44;94512.25;;;36.10;33.57
11878;BME280;5998;42.676;23.268;2022-08-19T10:47:14;94499.06;;;35.72;34.14
11878;BME280;5998;42.676;23.268;2022-08-19T10:49:41;94501.09;;;35.66;35.42
11878;BME280;5998;42.676;23.268;2022-08-19T10:52:25;94469.38;;;34.60;34.70
11878;BME280;5998;42.676;23.268;2022-08-19T10:55:04;94498.22;;;34.99;35.19
11878;BME280;5998;42.676;23.268;2022-08-19T10:57:48;94495.72;;;35.29;36.04
11878;BME280;5998;42.676;23.268;2022-08-19T11:00:16;94493.19;;;35.53;36.08
11878;BME280;5998;42.676;23.268;2022-08-19T11:02:44;94496.22;;;35.88;35.63
11878;BME280;5998;42.676;23.268;2022-08-19T11:05:11;94494.44;;;36.07;35.84
11878;BME280;5998;42.676;23.268;2022-08-19T11:07:39;94489.78;;;36.32;35.71
11878;BME280;5998;42.676;23.268;2022-08-19T11:10:08;94490.63;;;35.94;32.83
11878;BME280;5998;42.676;23.268;2022-08-19T11:12:36;94494.41;;;36.19;34.54
11878;BME280;5998;42.676;23.268;2022-08-19T11:15:05;94485.44;;;36.37;35.17
11878;BME280;5998;42.676;23.268;2022-08-19T11:17:33;94490.16;;;36.70;33.22
11878;BME280;5998;42.676;23.268;2022-08-19T11:20:01;94481.94;;;36.83;33.30
11878;BME280;5998;42.676;23.268;2022-08-19T11:22:30;94486.47;;;36.97;32.56
11878;BME280;5998;42.676;23.268;2022-08-19T11:24:56;94467.84;;;36.88;32.15
11878;BME280;5998;42.676;23.268;2022-08-19T11:27:23;94479.56;;;36.98;33.78
11878;BME280;5998;42.676;23.268;2022-08-19T11:29:50;94477.25;;;36.50;31.65
11878;BME280;5998;42.676;23.268;2022-08-19T11:32:18;94479.44;;;35.77;32.34
11878;BME280;5998;42.676;23.268;2022-08-19T11:34:45;94473.28;;;36.01;33.96
11878;BME280;5998;42.676;23.268;2022-08-19T11:37:13;94469.72;;;36.12;34.05
11878;BME280;5998;42.676;23.268;2022-08-19T11:39:41;94459.97;;;36.24;33.49
11878;BME280;5998;42.676;23.268;2022-08-19T11:42:08;94450.34;;;36.14;32.46
11878;BME280;5998;42.676;23.268;2022-08-19T11:44:48;94456.72;;;36.08;34.02
11878;BME280;5998;42.676;23.268;2022-08-19T11:47:15;94452.16;;;36.05;33.84
11878;BME280;5998;42.676;23.268;2022-08-19T11:49:42;94456.66;;;36.31;34.86
11878;BME280;5998;42.676;23.268;2022-08-19T11:52:08;94459.91;;;36.40;34.29
11878;BME280;5998;42.676;23.268;2022-08-19T11:54:37;94463.13;;;36.66;34.42
11878;BME280;5998;42.676;23.268;2022-08-19T11:57:04;94456.47;;;36.75;34.21
11878;BME280;5998;42.676;23.268;2022-08-19T11:59:31;94459.66;;;36.96;33.53
11878;BME280;5998;42.676;23.268;2022-08-19T12:01:58;94460.38;;;36.55;33.05
11878;BME280;5998;42.676;23.268;2022-08-19T12:04:24;94445.19;;;36.81;33.81
11878;BME280;5998;42.676;23.268;2022-08-19T12:06:52;94441.47;;;37.08;34.26
11878;BME280;5998;42.676;23.268;2022-08-19T12:09:18;94434.66;;;36.92;33.15
11878;BME280;5998;42.676;23.268;2022-08-19T12:11:48;94433.47;;;37.17;32.58
11878;BME280;5998;42.676;23.268;2022-08-19T12:14:16;94441.56;;;37.27;32.64
11878;BME280;5998;42.676;23.268;2022-08-19T12:16:44;94432.00;;;37.46;33.04
11878;BME280;5998;42.676;23.268;2022-08-19T12:19:12;94428.72;;;37.66;32.14
11878;BME280;5998;42.676;23.268;2022-08-19T12:21:38;94422.47;;;37.79;31.68
11878;BME280;5998;42.676;23.268;2022-08-19T12:24:06;94419.84;;;37.87;32.50
11878;BME280;5998;42.676;23.268;2022-08-19T12:26:34;94418.28;;;37.91;32.51
11878;BME280;5998;42.676;23.268;2022-08-19T12:29:03;94421.56;;;37.95;31.07
11878;BME280;5998;42.676;23.268;2022-08-19T12:31:30;94411.19;;;38.09;31.24
11878;BME280;5998;42.676;23.268;2022-08-19T12:33:57;94412.84;;;37.99;30.70
11878;BME280;5998;42.676;23.268;2022-08-19T12:36:25;94417.44;;;37.72;32.24
11878;BME280;5998;42.676;23.268;2022-08-19T12:38:52;94408.06;;;37.94;31.46
11878;BME280;5998;42.676;23.268;2022-08-19T12:41:19;94411.13;;;38.14;31.04
11878;BME280;5998;42.676;23.268;2022-08-19T12:43:47;94405.66;;;38.22;31.67
11878;BME280;5998;42.676;23.268;2022-08-19T12:46:18;94402.44;;;37.94;30.30
11878;BME280;5998;42.676;23.268;2022-08-19T12:48:45;94391.91;;;37.94;31.89
11878;BME280;5998;42.676;23.268;2022-08-19T12:51:14;94366.38;;;37.44;30.22
11878;BME280;5998;42.676;23.268;2022-08-19T12:53:41;94395.00;;;37.42;31.03
11878;BME280;5998;42.676;23.268;2022-08-19T12:56:09;94390.69;;;37.36;31.14
11878;BME280;5998;42.676;23.268;2022-08-19T12:58:37;94391.34;;;37.47;32.06
11878;BME280;5998;42.676;23.268;2022-08-19T13:01:08;94388.78;;;37.19;30.83
11878;BME280;5998;42.676;23.268;2022-08-19T13:03:37;94389.34;;;36.77;32.09